createdAt,value
2023-05-05T00:02:28.384Z,3.60
2023-05-05T00:04:58.768Z,3.80
2023-05-05T00:07:29.023Z,3.60
2023-05-05T00:09:59.177Z,3.90
2023-05-05T00:12:29.410Z,3.80
2023-05-05T00:14:59.847Z,3.40
2023-05-05T00:17:30.051Z,3.70
2023-05-05T00:20:00.925Z,3.70
2023-05-05T00:22:31.250Z,3.50
2023-05-05T00:25:01.479Z,3.50
2023-05-05T00:27:31.650Z,3.20
2023-05-05T00:30:01.853Z,3.40
2023-05-05T00:32:32.103Z,3.70
2023-05-05T00:35:02.342Z,4.10
2023-05-05T00:37:32.537Z,3.70
2023-05-05T00:40:03.908Z,3.40
2023-05-05T00:42:42.483Z,3.60
2023-05-05T00:45:14.983Z,3.60
2023-05-05T00:47:46.257Z,3.30
2023-05-05T00:50:23.531Z,3.40
2023-05-05T00:52:56.444Z,3.50
2023-05-05T00:57:56.618Z,3.40
2023-05-05T01:00:27.110Z,3.50
2023-05-05T01:02:58.771Z,3.80
2023-05-05T01:05:31.892Z,3.80
2023-05-05T01:08:11.679Z,3.70
2023-05-05T01:10:44.168Z,3.90
2023-05-05T01:13:25.428Z,3.70
2023-05-05T01:16:02.463Z,3.70
2023-05-05T01:18:36.642Z,3.70
2023-05-05T01:21:10.963Z,3.60
2023-05-05T01:23:54.631Z,3.70
2023-05-05T01:26:42.661Z,4.10
2023-05-05T01:29:33.441Z,3.60
2023-05-05T01:32:06.496Z,3.70
2023-05-05T01:34:43.219Z,3.90
2023-05-05T01:37:15.490Z,3.90
2023-05-05T01:39:46.053Z,4.00
2023-05-05T01:42:18.625Z,4.00
2023-05-05T01:44:50.132Z,3.90
2023-05-05T01:47:22.668Z,3.70
2023-05-05T01:49:53.469Z,3.80
2023-05-05T01:52:24.909Z,3.60
2023-05-05T01:54:55.898Z,3.90
2023-05-05T01:57:27.148Z,3.70
2023-05-05T01:59:57.833Z,4.00
2023-05-05T02:02:28.381Z,3.70
2023-05-05T02:04:59.081Z,3.60
2023-05-05T02:07:29.777Z,4.10
2023-05-05T02:10:00.569Z,3.60
2023-05-05T02:12:31.608Z,4.20
2023-05-05T02:15:03.988Z,3.50
2023-05-05T02:17:34.369Z,3.90
2023-05-05T02:20:06.184Z,3.40
2023-05-05T02:22:36.539Z,5.80
2023-05-05T02:25:08.601Z,3.60
2023-05-05T02:27:40.105Z,3.90
2023-05-05T02:30:12.504Z,4.20
2023-05-05T02:32:49.042Z,4.10
2023-05-05T02:35:22.073Z,3.80
2023-05-05T02:37:59.578Z,4.20
2023-05-05T02:40:32.975Z,4.40
2023-05-05T02:43:10.062Z,4.10
2023-05-05T02:45:40.475Z,4.30
2023-05-05T02:48:12.866Z,4.70
2023-05-05T02:50:43.205Z,4.20
2023-05-05T02:53:30.364Z,4.10
2023-05-05T02:56:09.361Z,4.50
2023-05-05T02:58:50.105Z,3.90
2023-05-05T03:01:29.146Z,4.30
2023-05-05T03:04:07.428Z,4.80
2023-05-05T03:06:43.728Z,4.00
2023-05-05T03:09:21.472Z,4.30
2023-05-05T03:11:55.956Z,4.60
2023-05-05T03:14:27.270Z,4.20
2023-05-05T03:16:58.293Z,4.60
2023-05-05T03:19:28.821Z,4.40
2023-05-05T03:22:02.015Z,3.90
2023-05-05T03:24:32.473Z,4.50
2023-05-05T03:27:06.990Z,4.40
2023-05-05T03:29:40.262Z,4.50
2023-05-05T03:32:14.035Z,4.80
2023-05-05T03:34:44.513Z,4.40
2023-05-05T03:37:14.807Z,4.50
2023-05-05T03:39:45.370Z,4.50
2023-05-05T03:42:15.902Z,5.00
2023-05-05T03:44:46.136Z,5.70
2023-05-05T03:47:17.203Z,4.60
2023-05-05T03:49:48.367Z,4.70
2023-05-05T03:52:18.827Z,5.00
2023-05-05T03:54:49.121Z,4.60
2023-05-05T03:57:19.298Z,4.10
2023-05-05T03:59:49.719Z,4.60
2023-05-05T04:02:20.142Z,4.70
2023-05-05T04:04:50.669Z,4.80
2023-05-05T04:07:22.751Z,4.50
2023-05-05T04:09:53.478Z,4.40
2023-05-05T04:12:23.836Z,4.40
2023-05-05T04:14:54.433Z,4.20
2023-05-05T04:17:25.268Z,4.40
2023-05-05T04:19:55.660Z,4.60
2023-05-05T04:22:26.183Z,4.50
2023-05-05T04:24:57.326Z,4.90
2023-05-05T04:27:30.451Z,4.10
2023-05-05T04:30:01.429Z,4.20
2023-05-05T04:32:33.565Z,4.40
2023-05-05T04:35:04.989Z,4.70
2023-05-05T04:37:35.820Z,4.40
2023-05-05T04:40:09.235Z,4.90
2023-05-05T04:42:39.796Z,4.50
2023-05-05T04:45:11.847Z,4.60
2023-05-05T04:47:42.237Z,4.80
2023-05-05T04:50:13.798Z,5.50
2023-05-05T04:52:44.025Z,4.50
2023-05-05T04:55:14.784Z,4.50
2023-05-05T04:57:45.045Z,5.00
2023-05-05T05:00:17.037Z,4.90
2023-05-05T05:02:47.418Z,4.80
2023-05-05T05:05:17.962Z,4.70
2023-05-05T05:07:48.470Z,5.20
2023-05-05T05:10:19.066Z,5.60
2023-05-05T05:12:51.153Z,5.80
2023-05-05T05:15:21.402Z,5.40
2023-05-05T05:17:51.896Z,5.90
2023-05-05T05:20:22.508Z,8.80
2023-05-05T05:22:53.259Z,5.00
2023-05-05T05:25:24.155Z,5.10
2023-05-05T05:28:08.392Z,5.40
2023-05-05T05:30:42.699Z,4.50
2023-05-05T05:33:13.392Z,5.60
2023-05-05T05:35:44.178Z,4.90
2023-05-05T05:38:15.142Z,5.80
2023-05-05T05:40:45.736Z,5.50
2023-05-05T05:43:16.561Z,5.20
2023-05-05T05:45:46.940Z,5.10
2023-05-05T05:48:17.572Z,5.90
2023-05-05T05:50:47.985Z,5.50
2023-05-05T05:53:18.205Z,5.20
2023-05-05T05:55:49.560Z,5.60
2023-05-05T05:58:19.865Z,5.80
2023-05-05T06:00:51.543Z,5.90
2023-05-05T06:03:22.061Z,5.80
2023-05-05T06:05:52.328Z,5.70
2023-05-05T06:08:24.799Z,6.40
2023-05-05T06:10:56.141Z,6.20
2023-05-05T06:13:27.119Z,6.10
2023-05-05T06:15:58.269Z,6.00
2023-05-05T06:18:28.688Z,5.90
2023-05-05T06:21:00.274Z,5.90
2023-05-05T06:23:31.296Z,5.50
2023-05-05T06:26:05.849Z,6.00
2023-05-05T06:28:36.041Z,6.30
2023-05-05T06:31:06.330Z,6.50
2023-05-05T06:33:36.791Z,6.60
2023-05-05T06:36:09.441Z,7.10
2023-05-05T06:38:39.755Z,7.30
2023-05-05T06:41:10.037Z,6.20
2023-05-05T06:43:42.906Z,6.50
2023-05-05T06:46:15.236Z,7.60
2023-05-05T06:48:46.122Z,6.90
2023-05-05T06:51:19.107Z,7.30
2023-05-05T06:53:49.539Z,8.10
2023-05-05T06:56:19.836Z,7.10
2023-05-05T06:58:50.479Z,7.90
2023-05-05T07:01:21.527Z,7.80
2023-05-05T07:03:52.331Z,8.00
2023-05-05T07:06:22.784Z,8.90
2023-05-05T07:08:53.511Z,9.00
2023-05-05T07:11:23.753Z,9.10
2023-05-05T07:13:54.311Z,9.60
2023-05-05T07:16:24.757Z,8.70
2023-05-05T07:18:55.180Z,8.10
2023-05-05T07:21:26.979Z,8.20
2023-05-05T07:23:58.216Z,8.50
2023-05-05T07:26:32.529Z,8.70
2023-05-05T07:29:07.489Z,8.00
2023-05-05T07:31:37.936Z,8.30
2023-05-05T07:34:08.408Z,8.00
2023-05-05T07:36:38.706Z,7.90
2023-05-05T07:39:09.143Z,8.20
2023-05-05T07:41:39.665Z,8.10
2023-05-05T07:44:09.929Z,8.80
2023-05-05T07:46:40.483Z,9.50
2023-05-05T07:49:10.874Z,8.20
2023-05-05T07:51:41.107Z,7.90
2023-05-05T07:54:13.021Z,8.30
2023-05-05T07:56:43.356Z,9.00
2023-05-05T07:59:13.969Z,8.40
2023-05-05T08:01:44.313Z,9.00
2023-05-05T08:04:14.681Z,8.90
2023-05-05T08:06:45.669Z,10.50
2023-05-05T08:09:16.780Z,10.60
2023-05-05T08:11:46.914Z,9.00
2023-05-05T08:14:17.490Z,9.60
2023-05-05T08:16:47.965Z,9.80
2023-05-05T08:19:28.842Z,10.80
2023-05-05T08:22:01.561Z,10.10
2023-05-05T08:24:32.192Z,10.10
2023-05-05T08:27:02.626Z,10.40
2023-05-05T08:29:33.219Z,10.30
2023-05-05T08:32:03.444Z,12.10
2023-05-05T08:34:33.776Z,9.00
2023-05-05T08:37:03.953Z,9.60
2023-05-05T08:39:34.141Z,10.40
2023-05-05T08:42:05.392Z,11.10
2023-05-05T08:44:36.174Z,9.60
2023-05-05T08:47:07.147Z,10.70
2023-05-05T08:49:46.354Z,9.90
2023-05-05T08:52:19.206Z,10.60
2023-05-05T08:54:54.830Z,11.10
2023-05-05T08:57:29.136Z,9.50
2023-05-05T08:59:59.722Z,9.20
2023-05-05T09:02:31.230Z,9.50
2023-05-05T09:05:05.050Z,8.80
2023-05-05T09:07:36.356Z,9.30
2023-05-05T09:10:08.440Z,10.10
2023-05-05T09:12:41.355Z,9.20
2023-05-05T09:15:13.660Z,10.30
2023-05-05T09:17:44.525Z,9.00
2023-05-05T09:20:16.160Z,9.20
2023-05-05T09:22:49.093Z,8.80
2023-05-05T09:25:19.916Z,10.00
2023-05-05T09:27:51.002Z,9.80
2023-05-05T09:30:27.257Z,10.00
2023-05-05T09:32:57.591Z,9.30
2023-05-05T09:35:27.816Z,8.20
2023-05-05T09:37:58.028Z,8.10
2023-05-05T09:40:28.286Z,8.20
2023-05-05T09:43:04.399Z,7.90
2023-05-05T09:45:35.035Z,7.50
2023-05-05T09:48:06.240Z,8.80
2023-05-05T09:50:45.476Z,8.20
2023-05-05T09:53:16.086Z,7.50
2023-05-05T09:55:55.053Z,6.50
2023-05-05T09:58:26.434Z,6.20
2023-05-05T10:00:57.551Z,5.00
2023-05-05T10:03:27.966Z,4.90
2023-05-05T10:06:00.953Z,5.60
2023-05-05T10:08:34.174Z,4.70
2023-05-05T10:11:06.958Z,5.30
2023-05-05T10:13:41.795Z,4.60
2023-05-05T10:16:14.510Z,4.80
2023-05-05T10:18:46.280Z,4.50
2023-05-05T10:21:22.106Z,4.70
2023-05-05T10:24:02.108Z,4.70
2023-05-05T10:26:35.440Z,5.00
2023-05-05T10:29:12.080Z,4.70
2023-05-05T10:31:46.044Z,4.10
2023-05-05T10:34:22.446Z,5.00
2023-05-05T10:36:55.121Z,4.40
2023-05-05T10:39:26.648Z,4.90
2023-05-05T10:41:58.741Z,3.60
2023-05-05T10:44:29.926Z,4.80
2023-05-05T10:47:00.861Z,4.20
2023-05-05T10:49:39.320Z,4.20
2023-05-05T10:52:15.111Z,3.50
2023-05-05T10:54:48.497Z,3.50
2023-05-05T10:57:21.604Z,3.00
2023-05-05T10:59:51.926Z,2.50
2023-05-05T11:02:24.527Z,2.70
2023-05-05T11:05:08.491Z,2.60
2023-05-05T11:07:38.999Z,3.10
2023-05-05T11:10:10.711Z,2.10
2023-05-05T11:13:11.220Z,2.10
2023-05-05T11:15:41.867Z,2.00
2023-05-05T11:18:31.298Z,1.90
2023-05-05T11:21:18.107Z,1.90
2023-05-05T11:23:52.956Z,1.70
2023-05-05T11:26:52.507Z,1.60
2023-05-05T11:29:22.849Z,1.70
2023-05-05T11:32:13.091Z,1.60
2023-05-05T11:34:51.909Z,1.50
2023-05-05T11:37:25.168Z,1.30
2023-05-05T11:40:09.392Z,1.30
2023-05-05T11:42:39.814Z,1.40
2023-05-05T11:45:23.757Z,1.50
2023-05-05T11:47:54.999Z,1.20
2023-05-05T11:52:55.174Z,1.20
2023-05-05T11:55:26.185Z,1.40
2023-05-05T11:57:56.584Z,1.30
2023-05-05T12:00:35.436Z,1.40
2023-05-05T12:03:06.427Z,1.20
2023-05-05T12:05:37.232Z,1.30
2023-05-05T12:08:07.845Z,1.40
2023-05-05T12:10:38.163Z,1.30
2023-05-05T12:13:20.383Z,1.40
2023-05-05T12:15:50.882Z,1.30
2023-05-05T12:18:21.765Z,1.60
2023-05-05T12:20:53.056Z,1.70
2023-05-05T12:23:23.648Z,1.40
2023-05-05T12:25:54.255Z,1.60
2023-05-05T12:28:24.695Z,1.50
2023-05-05T12:31:01.763Z,1.60
2023-05-05T12:33:32.329Z,1.50
2023-05-05T12:36:02.999Z,1.30
2023-05-05T12:38:33.446Z,1.30
2023-05-05T12:41:05.084Z,1.40
2023-05-05T12:43:36.337Z,1.50
2023-05-05T12:46:09.302Z,1.60
2023-05-05T12:48:46.350Z,1.60
2023-05-05T12:51:20.583Z,1.40
2023-05-05T12:54:02.270Z,1.40
2023-05-05T12:56:33.708Z,1.30
2023-05-05T12:59:04.725Z,1.40
2023-05-05T13:01:35.703Z,1.40
2023-05-05T13:04:13.937Z,1.40
2023-05-05T13:06:45.771Z,1.50
2023-05-05T13:09:26.860Z,1.50
2023-05-05T13:11:58.427Z,1.40
2023-05-05T13:16:57.379Z,1.50
2023-05-05T13:19:28.004Z,1.70
2023-05-05T13:21:59.086Z,1.20
2023-05-05T13:24:42.254Z,1.40
2023-05-05T13:27:23.668Z,1.20
2023-05-05T13:29:54.107Z,1.50
2023-05-05T13:32:24.926Z,1.40
2023-05-05T13:34:55.156Z,1.40
2023-05-05T13:37:25.571Z,1.20
2023-05-05T13:39:59.166Z,1.30
2023-05-05T13:42:29.337Z,1.30
2023-05-05T13:44:59.581Z,1.10
2023-05-05T13:47:29.825Z,1.30
2023-05-05T13:50:00.172Z,0.90
2023-05-05T13:52:31.797Z,0.90
2023-05-05T13:55:03.263Z,1.00
2023-05-05T13:57:33.478Z,1.00
2023-05-05T14:00:04.283Z,1.10
2023-05-05T14:02:37.776Z,1.10
2023-05-05T14:05:10.263Z,0.90
2023-05-05T14:07:40.810Z,0.90
2023-05-05T14:10:12.177Z,1.00
2023-05-05T14:12:42.464Z,1.10
2023-05-05T14:15:13.402Z,1.10
2023-05-05T14:17:43.647Z,1.10
2023-05-05T14:20:15.987Z,1.10
2023-05-05T14:22:48.782Z,1.10
2023-05-05T14:25:19.802Z,1.10
2023-05-05T14:27:50.897Z,1.30
2023-05-05T14:30:21.216Z,1.20
2023-05-05T14:32:51.501Z,1.40
2023-05-05T14:35:22.123Z,0.90
2023-05-05T14:37:52.290Z,1.20
2023-05-05T14:40:22.735Z,1.10
2023-05-05T14:42:53.002Z,1.10
2023-05-05T14:45:23.317Z,1.10
2023-05-05T14:47:53.808Z,1.10
2023-05-05T14:50:24.522Z,1.00
2023-05-05T14:52:54.877Z,0.90
2023-05-05T14:55:26.033Z,1.00
2023-05-05T14:57:56.254Z,0.80
2023-05-05T15:00:26.896Z,0.80
2023-05-05T15:02:57.362Z,0.80
2023-05-05T15:05:27.959Z,0.70
2023-05-05T15:07:58.572Z,0.90
2023-05-05T15:10:28.787Z,0.80
2023-05-05T15:12:59.200Z,1.90
2023-05-05T15:15:29.542Z,1.20
2023-05-05T15:17:59.794Z,1.10
2023-05-05T15:20:30.677Z,1.10
2023-05-05T15:23:01.321Z,1.10
2023-05-05T15:25:31.826Z,1.20
2023-05-05T15:28:02.071Z,1.00
2023-05-05T15:30:32.676Z,0.90
2023-05-05T15:33:03.361Z,1.10
2023-05-05T15:35:33.678Z,1.30
2023-05-05T15:38:04.704Z,1.20
2023-05-05T15:40:36.264Z,3.50
2023-05-05T15:43:06.774Z,1.50
2023-05-05T15:45:38.351Z,1.50
2023-05-05T15:48:09.184Z,1.10
2023-05-05T15:50:39.345Z,1.30
2023-05-05T15:53:09.553Z,1.10
2023-05-05T15:55:40.161Z,1.30
2023-05-05T15:58:10.621Z,1.30
2023-05-05T16:00:41.621Z,1.70
2023-05-05T16:03:11.914Z,1.20
2023-05-05T16:05:42.851Z,1.10
2023-05-05T16:08:13.085Z,1.20
2023-05-05T16:10:43.275Z,1.40
2023-05-05T16:13:13.930Z,1.20
2023-05-05T16:15:44.678Z,1.10
2023-05-05T16:18:14.875Z,1.60
2023-05-05T16:20:45.204Z,1.40
2023-05-05T16:23:16.137Z,1.50
2023-05-05T16:25:46.424Z,1.40
2023-05-05T16:28:16.814Z,1.20
2023-05-05T16:30:47.619Z,1.50
2023-05-05T16:33:17.809Z,1.40
2023-05-05T16:35:48.123Z,1.50
2023-05-05T16:38:18.381Z,1.40
2023-05-05T16:40:48.574Z,1.50
2023-05-05T16:43:19.719Z,1.60
2023-05-05T16:45:50.021Z,1.80
2023-05-05T16:48:20.272Z,1.60
2023-05-05T16:50:50.569Z,1.60
2023-05-05T16:53:20.789Z,1.50
2023-05-05T16:55:53.486Z,1.60
2023-05-05T17:00:52.948Z,1.50
2023-05-05T17:03:23.799Z,1.80
2023-05-05T17:05:55.099Z,1.50
2023-05-05T17:08:25.558Z,1.40
2023-05-05T17:10:56.014Z,1.70
2023-05-05T17:13:26.300Z,1.40
2023-05-05T17:15:56.548Z,1.60
2023-05-05T17:18:26.820Z,1.60
2023-05-05T17:20:57.124Z,1.30
2023-05-05T17:23:27.624Z,1.60
2023-05-05T17:25:59.495Z,1.90
2023-05-05T17:28:30.124Z,1.50
2023-05-05T17:31:01.591Z,1.30
2023-05-05T17:33:31.834Z,1.30
2023-05-05T17:36:02.174Z,1.30
2023-05-05T17:38:32.470Z,1.40
2023-05-05T17:41:03.092Z,2.50
2023-05-05T17:43:33.395Z,1.70
2023-05-05T17:46:03.790Z,1.60
2023-05-05T17:48:34.689Z,1.30
2023-05-05T17:51:05.285Z,1.40
2023-05-05T17:53:35.636Z,1.30
2023-05-05T17:56:08.725Z,1.40
2023-05-05T17:58:39.423Z,1.20
2023-05-05T18:01:13.425Z,1.30
2023-05-05T18:03:43.794Z,1.60
2023-05-05T18:06:14.218Z,1.80
2023-05-05T18:08:44.814Z,1.50
2023-05-05T18:11:15.406Z,1.20
2023-05-05T18:13:46.128Z,1.60
2023-05-05T18:16:16.424Z,1.30
2023-05-05T18:18:46.643Z,1.30
2023-05-05T18:21:17.018Z,1.50
2023-05-05T18:23:47.302Z,1.30
2023-05-05T18:26:17.621Z,1.50
2023-05-05T18:28:47.993Z,1.60
2023-05-05T18:31:18.249Z,1.70
2023-05-05T18:33:48.547Z,1.50
2023-05-05T18:36:19.333Z,1.60
2023-05-05T18:38:49.882Z,1.70
2023-05-05T18:41:20.347Z,1.10
2023-05-05T18:43:51.032Z,1.20
2023-05-05T18:46:22.428Z,1.50
2023-05-05T18:48:53.154Z,1.40
2023-05-05T18:51:23.432Z,1.50
2023-05-05T18:53:53.797Z,1.40
2023-05-05T18:56:24.113Z,1.70
2023-05-05T18:58:54.495Z,1.30
2023-05-05T19:01:25.444Z,1.60
2023-05-05T19:03:56.101Z,1.30
2023-05-05T19:06:27.272Z,1.30
2023-05-05T19:08:57.657Z,1.40
2023-05-05T19:11:28.310Z,1.50
2023-05-05T19:13:58.537Z,1.80
2023-05-05T19:16:30.119Z,1.60
2023-05-05T19:19:00.907Z,1.50
2023-05-05T19:21:31.667Z,1.30
2023-05-05T19:24:01.964Z,1.30
2023-05-05T19:26:32.854Z,1.80
2023-05-05T19:29:03.451Z,1.20
2023-05-05T19:31:34.313Z,1.50
2023-05-05T19:34:05.982Z,1.70
2023-05-05T19:36:36.674Z,1.40
2023-05-05T19:39:08.205Z,1.50
2023-05-05T19:41:38.624Z,1.80
2023-05-05T19:44:09.058Z,1.70
2023-05-05T19:46:39.471Z,1.90
2023-05-05T19:49:10.525Z,1.50
2023-05-05T19:51:42.078Z,1.40
2023-05-05T19:54:12.342Z,1.50
2023-05-05T19:56:42.690Z,1.40
2023-05-05T19:59:13.047Z,1.50
2023-05-05T20:01:43.380Z,1.30
2023-05-05T20:04:14.104Z,1.40
2023-05-05T20:06:44.408Z,1.40
2023-05-05T20:09:15.054Z,1.20
2023-05-05T20:11:45.416Z,1.10
2023-05-05T20:14:15.747Z,1.10
2023-05-05T20:16:46.020Z,1.00
2023-05-05T20:19:16.370Z,0.90
2023-05-05T20:21:46.533Z,1.10
2023-05-05T20:24:18.013Z,1.20
2023-05-05T20:26:48.344Z,1.00
2023-05-05T20:29:19.796Z,1.30
2023-05-05T20:31:50.323Z,1.10
2023-05-05T20:34:21.003Z,1.80
2023-05-05T20:36:52.571Z,1.00
2023-05-05T20:39:22.832Z,0.90
2023-05-05T20:41:53.051Z,1.20
2023-05-05T20:44:23.300Z,0.90
2023-05-05T20:46:53.681Z,1.20
2023-05-05T20:49:24.419Z,1.10
2023-05-05T20:51:54.722Z,1.40
2023-05-05T20:54:24.854Z,1.10
2023-05-05T20:56:58.200Z,1.10
2023-05-05T20:59:28.838Z,1.20
2023-05-05T21:02:00.049Z,1.30
2023-05-05T21:04:30.289Z,1.20
2023-05-05T21:07:00.588Z,1.20
2023-05-05T21:09:31.386Z,1.60
2023-05-05T21:12:02.098Z,1.40
2023-05-05T21:14:32.341Z,1.30
2023-05-05T21:17:02.676Z,1.40
2023-05-05T21:19:32.924Z,1.10
2023-05-05T21:22:03.171Z,1.50
2023-05-05T21:24:33.303Z,1.40
2023-05-05T21:27:03.497Z,1.40
2023-05-05T21:29:37.456Z,1.00
2023-05-05T21:32:08.250Z,1.30
2023-05-05T21:34:39.055Z,1.20
2023-05-05T21:37:09.363Z,1.30
2023-05-05T21:39:39.745Z,1.30
2023-05-05T21:42:10.040Z,1.20
2023-05-05T21:44:40.344Z,1.20
2023-05-05T21:47:11.940Z,1.50
2023-05-05T21:49:42.235Z,1.10
2023-05-05T21:52:12.452Z,1.30
2023-05-05T21:54:42.588Z,1.10
2023-05-05T21:57:13.576Z,1.30
2023-05-05T21:59:43.831Z,1.50
2023-05-05T22:02:14.000Z,1.60
2023-05-05T22:04:48.972Z,1.40
2023-05-05T22:07:33.005Z,1.30
2023-05-05T22:10:03.737Z,1.50
2023-05-05T22:12:34.273Z,1.50
2023-05-05T22:15:05.307Z,1.60
2023-05-05T22:17:36.100Z,1.70
2023-05-05T22:20:09.724Z,1.50
2023-05-05T22:22:40.646Z,1.70
2023-05-05T22:25:12.133Z,1.90
2023-05-05T22:27:42.849Z,1.70
2023-05-05T22:30:14.930Z,1.70
2023-05-05T22:32:46.276Z,1.50
2023-05-05T22:35:16.660Z,1.90
2023-05-05T22:37:46.881Z,1.90
2023-05-05T22:40:17.325Z,1.70
2023-05-05T22:42:47.623Z,1.80
2023-05-05T22:45:17.934Z,2.20
2023-05-05T22:47:48.200Z,2.00
2023-05-05T22:50:18.805Z,1.90
2023-05-05T22:52:49.063Z,2.00
2023-05-05T22:55:20.263Z,2.30
2023-05-05T22:57:52.611Z,2.10
2023-05-05T23:00:23.083Z,2.10
2023-05-05T23:02:53.384Z,2.90
2023-05-05T23:05:24.513Z,2.10
2023-05-05T23:07:54.812Z,2.00
2023-05-05T23:10:24.977Z,2.10
2023-05-05T23:12:55.377Z,2.10
2023-05-05T23:15:25.907Z,2.20
2023-05-05T23:17:56.148Z,2.00
2023-05-05T23:20:26.710Z,2.00
2023-05-05T23:22:57.531Z,2.30
2023-05-05T23:25:27.974Z,2.30
2023-05-05T23:27:58.931Z,2.20
2023-05-05T23:30:29.329Z,2.20
2023-05-05T23:33:01.038Z,1.90
2023-05-05T23:35:31.406Z,2.00
2023-05-05T23:38:01.901Z,2.10
2023-05-05T23:40:32.096Z,1.80
2023-05-05T23:43:02.472Z,1.60
2023-05-05T23:45:32.759Z,2.10
2023-05-05T23:48:03.027Z,1.90
2023-05-05T23:50:33.258Z,1.80
2023-05-05T23:53:03.494Z,2.10
2023-05-05T23:55:33.699Z,2.10
2023-05-05T23:58:03.823Z,1.80
